tititudorancea.com
Station Historical Data
Daily Summary for November 14, 2018 Units:  Metric    English   Both
« Previous Day
Next Day »
Daily Weekly Monthly Yearly Custom
  High: Low: Average:
Temperature: -17.8 °C 11.4 °C 14.4 °C
Dew Point: -17.8 °C 9.4 °C 11.4 °C
Humidity: Humidity % 55 % 83 %
Wind Speed: 0 km/h 3.7 km/h 14.3 km/h
Wind Gust: 0 km/h - -
Wind:- - SSW
Pressure: 0 hPa 1010 hPa -
Precipitation: 0.25 mm    
Historical Graphs
 
 
Ararat weather Find more about Weather in Ararat, AU


 



 


Tabular Data for November 14, 2018
Time Temperature Dew Point Pressure Wind Wind Speed Wind Gust Humidity Rainfall Rate (Hourly)
-17.8 °C -17.8 °C 0 hPa Calm     Humidity % 0 mm
00:04 14.8 °C 13.7 °C 1010.7 hPa South 16.7 km/h 9.5 km/h 93 % 0 mm
00:09 14.8 °C 13.7 °C 1010.7 hPa South 13 km/h 10.5 km/h 93 % 0 mm
00:14 14.8 °C 13.7 °C 1010.7 hPa South 5.6 km/h 1 km/h 93 % 0 mm
00:19 14.7 °C 13.6 °C 1011.1 hPa South 11.1 km/h 8.2 km/h 93 % 0 mm
00:24 14.7 °C 13.6 °C 1011.1 hPa South 9.7 km/h 7.6 km/h 93 % 0 mm
00:29 14.6 °C 13.5 °C 1011.1 hPa South 7.4 km/h 4.5 km/h 93 % 0 mm
00:34 14.6 °C 13.4 °C 1011.1 hPa South 16.7 km/h 10.3 km/h 93 % 0.25 mm
00:39 14.3 °C 13.2 °C 1010.7 hPa South 13 km/h 8.5 km/h 93 % 0.25 mm
00:44 14.2 °C 13.1 °C 1010.7 hPa South 16.7 km/h 11.1 km/h 93 % 0.25 mm
00:49 14.1 °C 13.1 °C 1011.1 hPa SSW 13 km/h 11.9 km/h 94 % 0.25 mm
00:54 14 °C 13.1 °C 1011.1 hPa South 16.7 km/h 9.2 km/h 94 % 0.25 mm
00:59 13.9 °C 13 °C 1011.1 hPa South 9.7 km/h 9.3 km/h 94 % 0.25 mm
01:04 13.9 °C 12.9 °C 1011.1 hPa South 13 km/h 8.2 km/h 94 % 0.25 mm
01:09 13.9 °C 12.9 °C 1011.1 hPa North 11.1 km/h 8.2 km/h 94 % 0.25 mm
01:14 13.8 °C 12.9 °C 1011.1 hPa South 16.7 km/h 9.2 km/h 94 % 0.25 mm
01:19 13.8 °C 12.9 °C 1011.1 hPa South 13 km/h 7.9 km/h 94 % 0.25 mm
01:24 13.8 °C 12.8 °C 1010.7 hPa South 13 km/h 6.3 km/h 94 % 0.25 mm
01:29 13.8 °C 12.8 °C 1010.7 hPa South 11.3 km/h 7.4 km/h 94 % 0.25 mm
01:34 13.8 °C 12.8 °C 1010.7 hPa South 11.1 km/h 7.1 km/h 94 % 0 mm
01:39 13.8 °C 13 °C 1010.7 hPa South 7.4 km/h 4.3 km/h 95 % 0 mm
01:44 13.8 °C 13 °C 1010.7 hPa South 6.4 km/h 4.7 km/h 95 % 0 mm
01:49 13.8 °C 13 °C 1010.7 hPa South 11.1 km/h 8.9 km/h 95 % 0 mm
01:54 13.8 °C 13 °C 1010.7 hPa North 6.4 km/h 5.1 km/h 95 % 0 mm
01:59 13.7 °C 12.8 °C 1010.7 hPa South 9.7 km/h 6.6 km/h 94 % 0 mm
02:04 13.7 °C 12.9 °C 1010.7 hPa South 7.4 km/h 5.8 km/h 95 % 0 mm
02:09 13.7 °C 12.9 °C 1010.4 hPa South 5.6 km/h 4 km/h 95 % 0 mm
02:14 13.7 °C 12.9 °C 1010.4 hPa South 7.4 km/h 4.8 km/h 95 % 0 mm
02:19 13.7 °C 12.9 °C 1010.4 hPa North 5.6 km/h 2.7 km/h 95 % 0 mm
02:24 13.7 °C 12.9 °C 1010 hPa South 5.6 km/h 4.5 km/h 95 % 0 mm
02:29 13.7 °C 12.9 °C 1010 hPa South 5.6 km/h 1.9 km/h 95 % 0 mm
02:34 13.6 °C 12.8 °C 1010 hPa South 7.4 km/h 3.7 km/h 95 % 0 mm
02:39 13.5 °C 12.7 °C 1010 hPa South 5.6 km/h 6.1 km/h 95 % 0 mm
02:44 13.5 °C 12.7 °C 1010 hPa South 5.6 km/h 4.3 km/h 95 % 0 mm
02:49 13.5 °C 12.7 °C 1010 hPa South 5.6 km/h 1.1 km/h 95 % 0 mm
02:54 13.5 °C 12.7 °C 1010 hPa South 5.6 km/h 2.3 km/h 95 % 0 mm
02:59 13.5 °C 12.7 °C 1010 hPa South 6.4 km/h 4.8 km/h 95 % 0 mm
03:04 13.5 °C 12.7 °C 1010 hPa South 5.6 km/h 2.7 km/h 95 % 0 mm
03:09 13.5 °C 12.7 °C 1010 hPa South 5.6 km/h 2.1 km/h 95 % 0 mm
03:14 13.5 °C 12.7 °C 1010 hPa South 9.7 km/h 8.5 km/h 95 % 0 mm
03:19 13.5 °C 12.7 °C 1010 hPa South 7.4 km/h 4.5 km/h 95 % 0 mm
03:24 13.6 °C 12.8 °C 1010 hPa South 5.6 km/h 1.8 km/h 95 % 0 mm
03:29 13.6 °C 12.8 °C 1010 hPa South 9.3 km/h 6.4 km/h 95 % 0 mm
03:34 13.6 °C 12.8 °C 1010 hPa South 7.4 km/h 5 km/h 95 % 0 mm
03:39 13.6 °C 12.8 °C 1010 hPa South 5.6 km/h 1.6 km/h 95 % 0 mm
03:44 13.5 °C 12.7 °C 1010 hPa South 9.3 km/h 7.7 km/h 95 % 0 mm
03:49 13.5 °C 12.7 °C 1010 hPa South 9.3 km/h 5.1 km/h 95 % 0 mm
03:54 13.5 °C 12.7 °C 1010 hPa South 6.4 km/h 7.6 km/h 95 % 0 mm
03:59 13.5 °C 12.7 °C 1010 hPa North 11.1 km/h 4 km/h 95 % 0 mm
04:04 13.5 °C 12.7 °C 1010 hPa South 9.3 km/h 7.4 km/h 95 % 0 mm
04:09 13.4 °C 12.7 °C 1010.4 hPa North 9.3 km/h 6 km/h 95 % 0 mm
04:14 13.4 °C 12.7 °C 1010 hPa South 11.1 km/h 5 km/h 95 % 0 mm
04:19 13.3 °C 12.6 °C 1010.4 hPa South 11.3 km/h 7.9 km/h 95 % 0 mm
04:24 13.3 °C 12.5 °C 1010.4 hPa South 7.4 km/h 6.1 km/h 95 % 0 mm
04:29 13.2 °C 12.6 °C 1010.4 hPa South 14.8 km/h 9.7 km/h 96 % 0 mm
04:34 13.2 °C 12.6 °C 1010.4 hPa South 9.3 km/h 5.1 km/h 96 % 0 mm
04:39 13.2 °C 12.4 °C 1010.4 hPa South 13 km/h 6.3 km/h 95 % 0 mm
04:44 13.2 °C 12.6 °C 1010.4 hPa North 11.1 km/h 7.9 km/h 96 % 0 mm
04:49 13.2 °C 12.6 °C 1010.7 hPa South 14.8 km/h 8.2 km/h 96 % 0 mm
04:54 13.2 °C 12.6 °C 1010.7 hPa North 14.8 km/h 8 km/h 96 % 0 mm
04:59 13.2 °C 12.6 °C 1010.7 hPa SSW 5.6 km/h 5.3 km/h 96 % 0 mm
05:04 13.2 °C 12.6 °C 1010.7 hPa South 11.1 km/h 5.6 km/h 96 % 0 mm
05:09 13.2 °C 12.6 °C 1010.7 hPa South 14.8 km/h 9.2 km/h 96 % 0 mm
05:14 13.1 °C 12.5 °C 1010.7 hPa South 13 km/h 10.9 km/h 96 % 0 mm
05:19 13.1 °C 12.4 °C 1010.7 hPa South 14.8 km/h 9.8 km/h 96 % 0 mm
05:24 13 °C 12.4 °C 1011.1 hPa South 14.8 km/h 8.7 km/h 96 % 0 mm
05:29 13 °C 12.4 °C 1010.7 hPa South 9.7 km/h 6.8 km/h 96 % 0 mm
05:34 13 °C 12.4 °C 1011.1 hPa South 11.3 km/h 8.2 km/h 96 % 0 mm
05:39 13 °C 12.4 °C 1011.1 hPa South 11.3 km/h 10.3 km/h 96 % 0 mm
05:44 12.9 °C 12.3 °C 1011.1 hPa South 11.1 km/h 7.9 km/h 96 % 0 mm
05:49 12.9 °C 12.3 °C 1011.1 hPa South 5.6 km/h 4.3 km/h 96 % 0 mm
05:54 12.9 °C 12.3 °C 1011.1 hPa North 14.8 km/h 8.7 km/h 96 % 0 mm
05:59 12.8 °C 12.2 °C 1011.1 hPa South 16.7 km/h 8.5 km/h 96 % 0 mm
06:04 12.8 °C 12.2 °C 1011.4 hPa South 11.3 km/h 9.3 km/h 96 % 0 mm
06:09 12.6 °C 12 °C 1011.4 hPa North 14.8 km/h 8.5 km/h 96 % 0 mm
06:14 12.6 °C 11.9 °C 1011.4 hPa South 16.1 km/h 13.7 km/h 96 % 0 mm
06:19 12.4 °C 11.8 °C 1011.7 hPa North 13 km/h 9.2 km/h 96 % 0 mm
06:24 12.4 °C 11.8 °C 1011.7 hPa SSW 12.9 km/h 6.4 km/h 96 % 0 mm
06:29 12.4 °C 11.8 °C 1011.7 hPa South 11.1 km/h 8.4 km/h 96 % 0 mm
06:34 12.4 °C 11.8 °C 1011.7 hPa South 14.5 km/h 10.8 km/h 96 % 0 mm
06:39 12.2 °C 11.6 °C 1011.7 hPa South 16.7 km/h 10.9 km/h 96 % 0 mm
06:44 12.1 °C 11.5 °C 1011.7 hPa South 16.7 km/h 12.6 km/h 96 % 0 mm
06:49 11.9 °C 11.3 °C 1012.1 hPa North 20.4 km/h 11.3 km/h 96 % 0 mm
06:54 11.9 °C 11.3 °C 1012.1 hPa South 18.5 km/h 15.9 km/h 96 % 0 mm
06:59 11.8 °C 11.2 °C 1012.1 hPa North 18.5 km/h 11.4 km/h 96 % 0 mm
07:04 11.8 °C 11.2 °C 1012.1 hPa North 14.8 km/h 9 km/h 96 % 0 mm
07:09 11.8 °C 11.2 °C 1012.1 hPa South 8 km/h 8.5 km/h 96 % 0 mm
07:14 11.7 °C 11.1 °C 1012.1 hPa North 13 km/h 13.4 km/h 96 % 0 mm
07:19 11.7 °C 11.1 °C 1012.1 hPa South 11.3 km/h 8.4 km/h 96 % 0 mm
07:24 11.7 °C 11.1 °C 1012.1 hPa North 13 km/h 7.6 km/h 96 % 0 mm
07:29 11.8 °C 11.2 °C 1012.4 hPa North 9.3 km/h 7.7 km/h 96 % 0 mm
07:34 11.8 °C 11.2 °C 1012.4 hPa South 14.8 km/h 8.5 km/h 96 % 0 mm
07:39 11.7 °C 11.1 °C 1012.4 hPa North 11.3 km/h 10 km/h 96 % 0 mm
07:44 11.7 °C 11.1 °C 1012.4 hPa South 13 km/h 9.5 km/h 96 % 0 mm
07:49 11.6 °C 10.9 °C 1012.4 hPa South 7.4 km/h 6.1 km/h 96 % 0 mm
07:54 11.5 °C 10.9 °C 1012.4 hPa South 13 km/h 11.3 km/h 96 % 0 mm
07:59 11.5 °C 10.9 °C 1012.8 hPa South 14.8 km/h 8.2 km/h 96 % 0 mm
08:04 11.5 °C 10.9 °C 1012.8 hPa SSW 16.7 km/h 8.4 km/h 96 % 0 mm
08:09 11.5 °C 10.9 °C 1012.8 hPa North 14.8 km/h 7.9 km/h 96 % 0 mm
08:14 11.5 °C 10.9 °C 1012.8 hPa South 13 km/h 9.2 km/h 96 % 0 mm
08:19 11.4 °C 10.8 °C 1012.8 hPa South 14.8 km/h 10.9 km/h 96 % 0 mm
08:24 11.4 °C 10.8 °C 1012.8 hPa South 11.1 km/h 6.9 km/h 96 % 0 mm
08:29 11.6 °C 10.9 °C 1013.1 hPa South 7.4 km/h 7.1 km/h 96 % 0 mm
08:34 11.7 °C 11.2 °C 1013.1 hPa South 6.4 km/h 7.1 km/h 97 % 0 mm
08:39 11.7 °C 11.3 °C 1013.1 hPa South 13 km/h 7.9 km/h 97 % 0 mm
08:44 11.6 °C 11 °C 1013.1 hPa South 16.1 km/h 13 km/h 96 % 0 mm
08:49 11.5 °C 10.9 °C 1013.1 hPa South 13 km/h 6.4 km/h 96 % 0 mm
08:54 11.6 °C 11 °C 1013.1 hPa South 18.5 km/h 9.3 km/h 96 % 0 mm
08:59 11.7 °C 11.2 °C 1013.4 hPa South 13 km/h 6.4 km/h 97 % 0 mm
09:04 11.7 °C 11.1 °C 1013.4 hPa South 14.8 km/h 6.9 km/h 96 % 0 mm
09:09 11.9 °C 11.4 °C 1013.4 hPa South 11.1 km/h 8.5 km/h 97 % 0 mm
09:14 11.9 °C 11.3 °C 1013.4 hPa South 14.5 km/h 9.8 km/h 96 % 0 mm
09:19 11.8 °C 11.2 °C 1013.4 hPa South 11.1 km/h 6.3 km/h 96 % 0 mm
09:24 11.9 °C 11.3 °C 1013.1 hPa South 14.8 km/h 11.1 km/h 96 % 0 mm
09:29 12.1 °C 11.4 °C 1013.4 hPa South 14.5 km/h 6.6 km/h 96 % 0 mm
09:34 12.1 °C 11.4 °C 1013.4 hPa South 13 km/h 7.1 km/h 96 % 0 mm
09:39 12.1 °C 11.4 °C 1013.4 hPa South 18.5 km/h 11.9 km/h 96 % 0 mm
09:44 12.1 °C 11.4 °C 1013.4 hPa South 18.5 km/h 11.1 km/h 96 % 0 mm
09:49 12.1 °C 11.5 °C 1013.4 hPa South 14.8 km/h 11.1 km/h 96 % 0 mm
09:54 12.3 °C 11.7 °C 1013.4 hPa South 11.1 km/h 8 km/h 96 % 0 mm
09:59 12.3 °C 11.6 °C 1013.4 hPa South 18.5 km/h 10.6 km/h 95 % 0 mm
10:04 12.6 °C 11.9 °C 1013.4 hPa South 16.1 km/h 8.7 km/h 96 % 0 mm
10:09 12.5 °C 11.7 °C 1013.4 hPa SSW 14.8 km/h 7.1 km/h 95 % 0 mm
10:14 12.7 °C 11.9 °C 1013.4 hPa SSW 13 km/h 9.3 km/h 95 % 0 mm
10:19 12.6 °C 11.7 °C 1013.4 hPa South 14.5 km/h 12.2 km/h 94 % 0 mm
10:24 12.7 °C 11.7 °C 1013.8 hPa South 11.1 km/h 10.3 km/h 94 % 0 mm
10:29 12.6 °C 11.6 °C 1013.8 hPa South 18.5 km/h 13.4 km/h 94 % 0 mm
10:34 12.5 °C 11.6 °C 1013.8 hPa SSW 9.7 km/h 9.2 km/h 94 % 0 mm
10:39 12.6 °C 11.6 °C 1013.8 hPa SSW 13 km/h 6.1 km/h 94 % 0 mm
10:44 12.7 °C 11.8 °C 1013.8 hPa South 14.8 km/h 12.1 km/h 94 % 0 mm
10:49 12.7 °C 11.6 °C 1013.8 hPa South 14.5 km/h 8.9 km/h 93 % 0 mm
10:54 12.8 °C 11.7 °C 1013.8 hPa South 13 km/h 8 km/h 93 % 0 mm
10:59 12.9 °C 11.8 °C 1013.8 hPa South 9.7 km/h 6.6 km/h 93 % 0 mm
11:04 13.1 °C 12 °C 1013.8 hPa South 8 km/h 2.6 km/h 93 % 0 mm
11:09 13.4 °C 12.1 °C 1013.4 hPa South 11.1 km/h 7.4 km/h 92 % 0 mm
11:14 13.6 °C 12.3 °C 1013.4 hPa South 9.7 km/h 5.8 km/h 92 % 0 mm
11:19 13.7 °C 12.2 °C 1013.8 hPa South 11.1 km/h 8.2 km/h 91 % 0 mm
11:24 13.7 °C 11.9 °C 1013.8 hPa South 13 km/h 9.7 km/h 89 % 0 mm
11:29 13.9 °C 12.3 °C 1013.8 hPa South 11.1 km/h 6.1 km/h 90 % 0 mm
11:34 14.2 °C 12.6 °C 1013.8 hPa South 9.3 km/h 8.7 km/h 90 % 0 mm
11:39 14.2 °C 12.2 °C 1013.8 hPa South 11.1 km/h 6.4 km/h 88 % 0 mm
11:44 14.2 °C 12.2 °C 1013.8 hPa South 9.3 km/h 5.8 km/h 88 % 0 mm
11:49 14.3 °C 12.4 °C 1013.8 hPa South 11.1 km/h 6.4 km/h 88 % 0 mm
11:54 14.3 °C 12 °C 1013.8 hPa South 11.1 km/h 5.1 km/h 86 % 0 mm
11:59 14.5 °C 12.2 °C 1013.8 hPa South 16.7 km/h 9.7 km/h 86 % 0 mm
12:04 14.5 °C 12.2 °C 1013.8 hPa South 11.1 km/h 4.7 km/h 86 % 0 mm
12:09 14.7 °C 12.3 °C 1013.8 hPa South 14.8 km/h 13.8 km/h 86 % 0 mm
12:14 14.6 °C 12.1 °C 1013.8 hPa South 20.4 km/h 10.9 km/h 85 % 0 mm
12:19 14.5 °C 12.2 °C 1013.4 hPa SSW 11.1 km/h 6.1 km/h 86 % 0 mm
12:24 14.7 °C 12.4 °C 1013.4 hPa South 9.3 km/h 6.8 km/h 86 % 0 mm
12:29 14.8 °C 12.5 °C 1013.4 hPa South 8 km/h 5.8 km/h 86 % 0 mm
12:34 14.8 °C 12.3 °C 1013.4 hPa South 13 km/h 6.8 km/h 85 % 0 mm
12:39 15.1 °C 12.6 °C 1013.8 hPa SSW 9.3 km/h 10.1 km/h 85 % 0 mm
12:44 15.2 °C 12.3 °C 1013.8 hPa SSW 13 km/h 10.6 km/h 83 % 0 mm
12:49 15.1 °C 12.2 °C 1013.8 hPa SW 18.5 km/h 8.2 km/h 83 % 0 mm
12:54 14.8 °C 12.2 °C 1013.8 hPa North 16.1 km/h 8.7 km/h 84 % 0 mm
12:59 14.7 °C 12.1 °C 1013.8 hPa SSW 18.5 km/h 14.2 km/h 84 % 0 mm
13:04 14.9 °C 12.2 °C 1013.8 hPa SSW 18.5 km/h 9.2 km/h 84 % 0 mm
13:09 15.2 °C 12.5 °C 1013.8 hPa SSW 11.3 km/h 9 km/h 84 % 0 mm
13:14 15.3 °C 12.4 °C 1013.8 hPa South 13 km/h 7.9 km/h 83 % 0 mm
13:19 15.5 °C 12.6 °C 1013.8 hPa SSW 18.5 km/h 14.8 km/h 83 % 0 mm
13:24 15.3 °C 12.1 °C 1013.8 hPa SW 16.7 km/h 11.3 km/h 81 % 0 mm
13:29 15.4 °C 12.2 °C 1013.8 hPa SSW 16.7 km/h 14.8 km/h 81 % 0 mm
13:34 15.7 °C 12.4 °C 1013.8 hPa South 13 km/h 9.7 km/h 81 % 0 mm
13:39 16.1 °C 12.7 °C 1013.8 hPa SSW 13 km/h 8.4 km/h 80 % 0 mm
13:44 16.1 °C 12.4 °C 1013.8 hPa South 20.4 km/h 7.9 km/h 79 % 0 mm
13:49 16.3 °C 12.3 °C 1013.8 hPa South 18.5 km/h 13.4 km/h 77 % 0 mm
13:54 16.5 °C 12.4 °C 1013.8 hPa SSW 19.3 km/h 15.1 km/h 77 % 0 mm
13:59 16.4 °C 12.3 °C 1013.8 hPa South 13 km/h 8 km/h 77 % 0 mm
14:04 16.8 °C 12.2 °C 1013.8 hPa SSW 16.7 km/h 13 km/h 74 % 0 mm
14:09 16.9 °C 12.3 °C 1013.8 hPa SSW 14.8 km/h 12.7 km/h 74 % 0 mm
14:14 17.3 °C 12.7 °C 1013.8 hPa SSW 11.1 km/h 6.4 km/h 74 % 0 mm
14:19 17.1 °C 12.2 °C 1013.8 hPa SW 18.5 km/h 9.5 km/h 73 % 0 mm
14:24 17.5 °C 12.8 °C 1013.8 hPa SSW 18.5 km/h 14.2 km/h 74 % 0 mm
14:29 18.1 °C 12.5 °C 1014.1 hPa SW 24.1 km/h 17.7 km/h 70 % 0 mm
14:34 17.4 °C 11.7 °C 1014.1 hPa SSW 25.9 km/h 13.4 km/h 69 % 0 mm
14:39 17.4 °C 12.1 °C 1014.1 hPa SW 20.4 km/h 14.6 km/h 71 % 0 mm
14:44 17.6 °C 12.1 °C 1014.1 hPa SW 20.9 km/h 18.5 km/h 70 % 0 mm
14:49 17.4 °C 11.8 °C 1014.1 hPa South 20.4 km/h 16.9 km/h 70 % 0 mm
14:54 17.2 °C 11.9 °C 1014.1 hPa SSW 18.5 km/h 13.7 km/h 71 % 0 mm
14:59 17.3 °C 11.6 °C 1014.1 hPa SW 31.5 km/h 17.4 km/h 69 % 0 mm
15:04 17.1 °C 11.2 °C 1014.1 hPa SSW 22.2 km/h 17.4 km/h 68 % 0 mm
15:09 17.3 °C 11.2 °C 1014.1 hPa SSW 22.2 km/h 13 km/h 67 % 0 mm
15:14 17.4 °C 10.9 °C 1014.1 hPa SW 24.1 km/h 13.8 km/h 66 % 0 mm
15:19 17.6 °C 10.9 °C 1014.1 hPa SW 24.1 km/h 10.6 km/h 65 % 0 mm
15:24 17.5 °C 10.8 °C 1014.1 hPa SW 24.1 km/h 18.8 km/h 65 % 0 mm
15:29 17.5 °C 10.8 °C 1014.1 hPa WSW 19.3 km/h 16.4 km/h 65 % 0 mm
15:34 17.7 °C 10.6 °C 1013.8 hPa SSW 20.4 km/h 17.7 km/h 63 % 0 mm
15:39 17.8 °C 10.4 °C 1013.8 hPa SW 22.2 km/h 17.9 km/h 62 % 0 mm
15:44 18.2 °C 10.5 °C 1013.8 hPa SW 24.1 km/h 18 km/h 61 % 0 mm
15:49 18.7 °C 10.3 °C 1013.8 hPa SSW 14.8 km/h 15 km/h 58 % 0 mm
15:54 18.9 °C 10.2 °C 1013.8 hPa South 18.5 km/h 8.2 km/h 57 % 0 mm
15:59 19.1 °C 10.1 °C 1013.8 hPa SW 20.4 km/h 15.3 km/h 56 % 0 mm
16:04 19.2 °C 10.4 °C 1013.8 hPa South 27.8 km/h 12.6 km/h 57 % 0 mm
16:09 19.1 °C 10.1 °C 1014.1 hPa SSW 27.8 km/h 15.6 km/h 56 % 0 mm
16:14 19.3 °C 10.6 °C 1014.1 hPa SSW 22.5 km/h 12.6 km/h 57 % 0 mm
16:19 18.5 °C 9.6 °C 1014.1 hPa SSW 25.9 km/h 13.2 km/h 56 % 0 mm
16:24 18.3 °C 9.6 °C 1014.1 hPa SW 14.8 km/h 10 km/h 57 % 0 mm
16:29 18.8 °C 9.8 °C 1014.1 hPa SW 18.5 km/h 13.2 km/h 56 % 0 mm
16:34 19.1 °C 10.3 °C 1014.1 hPa SSW 22.5 km/h 11.7 km/h 57 % 0 mm
16:39 18.8 °C 9.8 °C 1014.1 hPa South 27.8 km/h 18.3 km/h 56 % 0 mm
16:44 18.7 °C 10.6 °C 1014.1 hPa SW 22.2 km/h 13.8 km/h 59 % 0 mm
16:49 18.7 °C 10.3 °C 1014.1 hPa SSW 24.1 km/h 19.5 km/h 58 % 0 mm
16:54 18.7 °C 10.8 °C 1013.8 hPa SSW 24.1 km/h 16.9 km/h 60 % 0 mm
16:59 18.9 °C 10.4 °C 1014.1 hPa South 24.1 km/h 16.6 km/h 58 % 0 mm
17:04 19.2 °C 10.9 °C 1014.1 hPa West 18.5 km/h 12.4 km/h 59 % 0 mm
17:09 19.4 °C 10.4 °C 1014.1 hPa SSW 18.5 km/h 14.6 km/h 56 % 0 mm
17:14 19.1 °C 10.6 °C 1014.1 hPa SW 16.7 km/h 12.4 km/h 58 % 0 mm
17:19 19.2 °C 10.2 °C 1014.1 hPa SSW 22.2 km/h 21.9 km/h 56 % 0 mm
17:24 19.1 °C 9.8 °C 1014.1 hPa SSW 18.5 km/h 9.7 km/h 55 % 0 mm
17:29 18.9 °C 9.9 °C 1014.1 hPa SSW 25.9 km/h 17.2 km/h 56 % 0 mm
17:34 18.9 °C 9.9 °C 1014.1 hPa SW 29.6 km/h 18.2 km/h 56 % 0 mm
17:39 19 °C 10 °C 1014.1 hPa WSW 24.1 km/h 13.2 km/h 56 % 0 mm
17:44 19.1 °C 10.4 °C 1014.1 hPa SW 18.5 km/h 9.8 km/h 57 % 0 mm
17:49 19.3 °C 10.6 °C 1014.1 hPa SW 16.1 km/h 14.6 km/h 57 % 0 mm
17:54 18.9 °C 9.9 °C 1014.1 hPa SW 16.7 km/h 10 km/h 56 % 0 mm
17:59 18.8 °C 10.4 °C 1014.1 hPa SW 18.5 km/h 11.1 km/h 58 % 0 mm
18:04 18.6 °C 10.2 °C 1014.4 hPa SW 16.7 km/h 9.2 km/h 58 % 0 mm
18:09 18.5 °C 10.3 °C 1014.1 hPa South 22.2 km/h 14 km/h 59 % 0 mm
18:14 18.6 °C 10.2 °C 1014.1 hPa SSW 14.8 km/h 10.6 km/h 58 % 0 mm
18:19 18.5 °C 10.1 °C 1014.1 hPa SSW 20.9 km/h 14.3 km/h 58 % 0 mm
18:24 18.6 °C 10.2 °C 1014.1 hPa SSW 18.5 km/h 15.6 km/h 58 % 0 mm
18:29 18.7 °C 10.2 °C 1014.1 hPa SSW 18.5 km/h 6 km/h 58 % 0 mm
18:34 18.7 °C 10 °C 1014.1 hPa SSW 18.5 km/h 15.3 km/h 57 % 0 mm
18:39 18.6 °C 10.4 °C 1014.4 hPa SSW 18.5 km/h 16.7 km/h 59 % 0 mm
18:44 18.3 °C 10.6 °C 1014.4 hPa South 17.7 km/h 10.3 km/h 61 % 0 mm
18:49 18 °C 10.8 °C 1014.4 hPa South 22.2 km/h 13 km/h 63 % 0 mm
18:54 17.8 °C 11.1 °C 1014.4 hPa South 13 km/h 7.6 km/h 65 % 0 mm
18:59 17.8 °C 11.4 °C 1014.4 hPa South 18.5 km/h 12.2 km/h 66 % 0 mm
19:04 17.7 °C 11.1 °C 1014.4 hPa SSE 18.5 km/h 11.3 km/h 65 % 0 mm
19:09 17.4 °C 11.2 °C 1014.8 hPa South 9.3 km/h 5.5 km/h 67 % 0 mm
19:14 17.2 °C 11.5 °C 1014.8 hPa SSE 18.5 km/h 13 km/h 69 % 0 mm
19:19 17 °C 11.7 °C 1014.8 hPa South 16.7 km/h 11.9 km/h 71 % 0 mm
19:24 16.9 °C 11.6 °C 1015.1 hPa South 13 km/h 11.3 km/h 71 % 0 mm
19:29 16.8 °C 11.7 °C 1015.1 hPa South 13 km/h 10 km/h 72 % 0 mm
19:34 16.7 °C 11.8 °C 1015.5 hPa South 13 km/h 8.2 km/h 73 % 0 mm
19:39 16.6 °C 11.5 °C 1015.5 hPa South 31.5 km/h 20.8 km/h 72 % 0 mm
19:44 16.2 °C 11.4 °C 1015.8 hPa SSW 27.8 km/h 18.7 km/h 73 % 0 mm
19:49 15.9 °C 11.7 °C 1015.8 hPa South 20.4 km/h 9.5 km/h 76 % 0 mm
19:54 15.8 °C 11.4 °C 1016.1 hPa South 16.7 km/h 10 km/h 75 % 0 mm
19:59 15.6 °C 11.2 °C 1016.1 hPa South 24.1 km/h 12.2 km/h 75 % 0 mm
20:04 15.4 °C 11 °C 1016.1 hPa South 16.7 km/h 4.2 km/h 75 % 0 mm
20:09 15.2 °C 10.9 °C 1016.1 hPa SSE 18.5 km/h 9.8 km/h 76 % 0 mm
20:14 15 °C 11 °C 1016.1 hPa SSE 18.5 km/h 12.1 km/h 77 % 0 mm
20:19 14.8 °C 11.1 °C 1016.5 hPa South 14.8 km/h 10.3 km/h 78 % 0 mm
20:24 14.7 °C 10.9 °C 1016.5 hPa South 16.7 km/h 12.7 km/h 78 % 0 mm
20:29 14.7 °C 11.1 °C 1016.5 hPa SSE 14.8 km/h 9 km/h 79 % 0 mm
20:34 14.6 °C 11 °C 1016.5 hPa SSE 16.7 km/h 7.2 km/h 79 % 0 mm
20:39 14.5 °C 10.9 °C 1016.8 hPa SSW 16.1 km/h 11.9 km/h 79 % 0 mm
20:44 14.4 °C 11.1 °C 1016.8 hPa SSW 9.3 km/h 5.5 km/h 80 % 0 mm
20:49 14.3 °C 10.9 °C 1016.8 hPa South 16.7 km/h 12.7 km/h 80 % 0 mm
20:54 14.1 °C 10.7 °C 1016.8 hPa SSW 22.2 km/h 13.8 km/h 80 % 0 mm
20:59 14 °C 10.6 °C 1017.2 hPa South 20.4 km/h 14.3 km/h 80 % 0 mm
21:04 13.9 °C 10.6 °C 1017.2 hPa South 22.2 km/h 11.6 km/h 80 % 0 mm
21:09 13.9 °C 10.5 °C 1017.2 hPa South 12.9 km/h 9 km/h 80 % 0 mm
21:14 13.8 °C 10.6 °C 1017.2 hPa SSE 18.5 km/h 11.6 km/h 81 % 0 mm
21:19 13.8 °C 10.6 °C 1017.5 hPa SE 18.5 km/h 12.6 km/h 81 % 0 mm
21:24 13.7 °C 10.4 °C 1017.5 hPa South 18.5 km/h 10.1 km/h 81 % 0 mm
21:29 13.7 °C 10.4 °C 1017.5 hPa South 13 km/h 8.4 km/h 81 % 0 mm
21:34 13.6 °C 10.4 °C 1017.5 hPa South 14.8 km/h 11.9 km/h 81 % 0 mm
21:39 13.5 °C 10.5 °C 1017.5 hPa South 18.5 km/h 12.1 km/h 82 % 0 mm
21:44 13.4 °C 10.4 °C 1017.5 hPa South 13 km/h 8 km/h 82 % 0 mm
21:49 13.3 °C 10.3 °C 1017.8 hPa South 9.7 km/h 3.7 km/h 82 % 0 mm
21:54 13.2 °C 10.3 °C 1017.8 hPa South 13 km/h 8.2 km/h 83 % 0 mm
21:59 13.1 °C 10.2 °C 1017.8 hPa South 11.1 km/h 7.6 km/h 83 % 0 mm
22:04 13.1 °C 10.2 °C 1018.2 hPa South 13 km/h 7.9 km/h 83 % 0 mm
22:09 13.1 °C 10.2 °C 1017.8 hPa South 11.3 km/h 10.3 km/h 83 % 0 mm
22:14 13 °C 10.2 °C 1018.2 hPa South 11.1 km/h 7.4 km/h 83 % 0 mm
22:19 12.9 °C 10.3 °C 1018.2 hPa South 11.1 km/h 8.5 km/h 84 % 0 mm
22:24 12.9 °C 10.2 °C 1018.2 hPa South 13 km/h 8.4 km/h 84 % 0 mm
22:29 12.8 °C 10.2 °C 1018.5 hPa South 13 km/h 7.4 km/h 84 % 0 mm
22:34 12.8 °C 10.2 °C 1018.2 hPa South 13 km/h 10.1 km/h 84 % 0 mm
22:39 12.7 °C 10.1 °C 1018.2 hPa South 6.4 km/h 6.4 km/h 84 % 0 mm
22:44 12.6 °C 10 °C 1018.2 hPa South 9.3 km/h 6.8 km/h 84 % 0 mm
22:49 12.6 °C 9.9 °C 1018.2 hPa South 7.4 km/h 3.9 km/h 84 % 0 mm
22:54 12.6 °C 10.2 °C 1018.2 hPa South 5.6 km/h 5.1 km/h 85 % 0 mm
22:59 12.5 °C 9.9 °C 1018.2 hPa South 5.6 km/h 2.7 km/h 84 % 0 mm
23:04 12.5 °C 9.9 °C 1018.2 hPa South 9.3 km/h 5 km/h 84 % 0 mm
23:09 12.4 °C 9.8 °C 1018.5 hPa South 3.7 km/h 3.5 km/h 84 % 0 mm
23:14 12.4 °C 9.8 °C 1018.5 hPa South 9.3 km/h 5.5 km/h 84 % 0 mm
23:19 12.4 °C 9.8 °C 1018.5 hPa South 6.4 km/h 5.6 km/h 84 % 0 mm
23:24 12.4 °C 9.8 °C 1018.5 hPa South 9.3 km/h 4.7 km/h 84 % 0 mm
23:29 12.3 °C 9.7 °C 1018.5 hPa South 9.3 km/h 3.5 km/h 84 % 0 mm
23:34 12.3 °C 9.7 °C 1018.5 hPa South 9.3 km/h 7.4 km/h 84 % 0 mm
23:39 12.3 °C 9.7 °C 1018.5 hPa South 14.8 km/h 8.9 km/h 84 % 0 mm
23:44 12.3 °C 9.7 °C 1018.5 hPa South 14.8 km/h 5.5 km/h 84 % 0 mm
23:49 12.3 °C 9.7 °C 1018.5 hPa South 11.1 km/h 8.7 km/h 84 % 0 mm
23:54 12.2 °C 9.4 °C 1018.5 hPa South 18.5 km/h 12.7 km/h 83 % 0 mm
23:59 12.1 °C 9.5 °C 1018.5 hPa South 7.4 km/h 4.5 km/h 84 % 0 mm
Ararat Weather
Compliments of Weather Underground - 2.25 mb
Click here to send mail.


ABOUT

Live weather data from Ararat, Victoria, Australia, 3377
Data uploaded from Cumulus every 5 minutes to Weather Underground.
This site then downloads the raw data for formatting and display.
Metric and imperial data can be displayed. Graphs and historical data available.
Includes Sun and Moon times and rain image live from BOM.

Check out Ararat Weather on Facebook, Twitter and Google +

Help support ongoing costs by checking out the ads





Follow @AraratWeather